Terminal Aerodrome Forecast
Issued by NWS

Home | Current Version | Previous Version | Text Only | Print | Product List | Glossary On
Versions: 1 2 3 4 5 6 7 8 9 10 11 12 13 14 15 16 17 18 19 20
680
FTUS43 KGRB 180734 AAA
TAFMTW
TAF AMD
KMTW 180734Z 1808/1906 28006KT 1SM BR OVC005
      TEMPO 1808/1812 1/4SM FG VV002
     FM181200 23006KT 2SM BR OVC005
     FM181800 22010KT P6SM SCT008
     FM182300 22006KT P6SM SKC=

USA.gov is the U.S. government's official web portal to all federal, state and local government web resources and services.